Time;durP1;ratioP1;P1;durP2;ratioP2;P2;SDS_P1;SDS_P2;PMS_P1;PMS_P2;Temp;Humidity;BMP_temperature;BMP_pressure;BME280_temperature;BME280_humidity;BME280_pressure;Samples;Min_cycle;Max_cycle;Signal;HPM_P1;HPM_P2
2022/04/06 00:01:51;;;;;;;0.20;0.20;;;;;;;9.46;68.75;99891.16;5018670;28;20014;-80
2022/04/06 00:04:17;;;;;;;0.20;0.20;;;;;;;9.86;68.00;99946.41;5019462;28;20077;-80
2022/04/06 00:06:43;;;;;;;0.30;0.30;;;;;;;9.63;67.88;99915.72;5018018;28;20025;-79
2022/04/06 00:09:08;;;;;;;0.20;0.20;;;;;;;9.45;68.59;99892.31;5019118;28;20022;-80
2022/04/06 00:11:34;;;;;;;0.20;0.20;;;;;;;9.51;68.78;99885.31;5018568;28;20042;-79
2022/04/06 00:14:01;;;;;;;0.20;0.20;;;;;;;9.60;68.67;99899.81;5019039;28;20053;-80
2022/04/06 00:16:26;;;;;;;0.20;0.20;;;;;;;9.88;68.13;99932.16;5018664;28;20021;-79
2022/04/06 00:18:52;;;;;;;0.20;0.20;;;;;;;9.75;68.61;99920.38;5017788;28;20038;-80
2022/04/06 00:21:19;;;;;;;0.30;0.30;;;;;;;9.50;68.93;99866.25;5018579;28;20039;-79
2022/04/06 00:23:47;;;;;;;0.20;0.20;;;;;;;9.54;68.33;99858.78;5018581;28;20033;-79
2022/04/06 00:26:14;;;;;;;0.20;0.20;;;;;;;9.94;67.46;99908.47;5018825;28;20035;-79
2022/04/06 00:28:39;;;;;;;0.20;0.20;;;;;;;9.58;67.52;99862.44;5018996;28;20038;-79
2022/04/06 00:31:05;;;;;;;0.20;0.20;;;;;;;9.79;67.26;99885.13;5018734;28;20030;-79
2022/04/06 00:33:31;;;;;;;0.25;0.25;;;;;;;9.60;67.84;99868.44;5017909;28;20010;-79
2022/04/06 00:35:59;;;;;;;0.30;0.30;;;;;;;9.68;67.01;99856.31;5018576;28;20019;-80
2022/04/06 00:38:25;;;;;;;0.25;0.25;;;;;;;9.57;66.75;99844.16;5018412;28;20039;-79
2022/04/06 00:40:51;;;;;;;0.20;0.20;;;;;;;9.91;65.87;99889.75;5017891;28;20021;-79
2022/04/06 00:43:16;;;;;;;0.20;0.20;;;;;;;9.64;66.05;99844.31;5018025;28;20025;-79
2022/04/06 00:45:46;;;;;;;0.20;0.20;;;;;;;9.70;65.32;99854.78;5017718;28;20014;-79
2022/04/06 00:48:12;;;;;;;0.20;0.20;;;;;;;9.70;65.04;99842.88;5018223;28;20107;-80
2022/04/06 00:50:41;;;;;;;0.20;0.20;;;;;;;9.69;66.18;99860.69;5018233;28;20015;-80
2022/04/06 00:53:08;;;;;;;0.20;0.20;;;;;;;9.79;66.01;99874.00;5018815;28;20070;-79
2022/04/06 00:55:36;;;;;;;0.20;0.20;;;;;;;9.94;66.03;99903.69;5018858;28;20026;-79
2022/04/06 01:00:37;;;;;;;0.20;0.20;;;;;;;9.84;66.17;99861.78;5050313;23;20046;-80
2022/04/06 01:03:03;;;;;;;0.20;0.20;;;;;;;10.17;65.60;99895.44;5002966;28;20082;-79
2022/04/06 01:05:32;;;;;;;0.20;0.20;;;;;;;9.78;65.51;99827.94;5001285;28;20038;-80
2022/04/06 01:08:00;;;;;;;0.20;0.20;;;;;;;9.83;64.85;99808.19;5001377;28;20086;-79
2022/04/06 01:10:27;;;;;;;0.20;0.20;;;;;;;9.91;65.00;99826.63;5001251;28;20014;-80
2022/04/06 01:12:54;;;;;;;0.20;0.20;;;;;;;10.14;65.67;99859.22;5018038;28;20021;-79
2022/04/06 01:15:20;;;;;;;0.20;0.20;;;;;;;10.17;66.01;99861.25;5000714;28;20022;-80
2022/04/06 01:17:48;;;;;;;0.20;0.20;;;;;;;10.03;65.56;99830.44;5000913;28;20098;-80
2022/04/06 01:22:49;;;;;;;0.20;0.20;;;;;;;10.16;64.09;99823.50;4876725;26;20039;-80
2022/04/06 01:25:15;;;;;;;0.20;0.20;;;;;;;10.31;63.79;99847.66;4981068;28;20086;-78
2022/04/06 01:27:43;;;;;;;0.20;0.20;;;;;;;10.03;63.67;99810.97;4997932;28;20052;-79
2022/04/06 01:30:12;;;;;;;0.20;0.20;;;;;;;10.27;64.11;99851.53;4998269;28;20038;-78
2022/04/06 01:32:38;;;;;;;0.20;0.20;;;;;;;10.22;63.06;99841.50;4981092;28;20106;-78
2022/04/06 01:35:06;;;;;;;0.20;0.20;;;;;;;10.32;62.81;99854.03;4981382;28;20038;-79
2022/04/06 01:37:35;;;;;;;0.20;0.20;;;;;;;10.06;61.58;99805.47;4998095;28;20079;-78
2022/04/06 01:40:03;;;;;;;0.20;0.20;;;;;;;10.46;61.45;99863.44;4997044;28;20054;-78
2022/04/06 01:42:29;;;;;;;0.20;0.20;;;;;;;10.15;61.78;99808.00;4980504;28;20019;-78
2022/04/06 01:44:58;;;;;;;0.20;0.20;;;;;;;10.23;61.98;99838.41;4980533;28;20021;-78
2022/04/06 01:47:23;;;;;;;0.20;0.20;;;;;;;10.40;61.82;99847.44;4998006;28;20031;-78
2022/04/06 01:52:37;;;;;;;0.20;0.20;;;;;;;10.49;60.57;99859.94;4997385;28;20507;-78
2022/04/06 01:55:14;;;;;;;0.20;0.20;;;;;;;10.10;60.92;99797.19;4997407;28;20030;-79
2022/04/06 01:57:41;;;;;;;0.20;0.20;;;;;;;10.44;61.14;99843.53;4997697;28;20035;-79
2022/04/06 02:00:15;;;;;;;0.20;0.20;;;;;;;10.37;60.22;99823.94;4997514;28;20074;-78
2022/04/06 02:02:43;;;;;;;0.20;0.20;;;;;;;10.22;60.87;99805.34;4981123;28;20098;-79
2022/04/06 02:05:12;;;;;;;0.20;0.20;;;;;;;10.56;60.87;99850.91;4996867;28;20022;-79
2022/04/06 02:07:38;;;;;;;0.20;0.20;;;;;;;10.41;60.38;99824.81;4998016;28;20011;-79
2022/04/06 02:10:07;;;;;;;0.20;0.20;;;;;;;10.61;60.19;99866.50;4981113;28;20035;-78
2022/04/06 02:12:40;;;;;;;0.20;0.20;;;;;;;10.32;60.77;99807.56;4979895;28;20014;-78
2022/04/06 02:15:10;;;;;;;0.20;0.20;;;;;;;10.57;61.18;99854.47;4998551;28;20053;-80
2022/04/06 02:17:40;;;;;;;0.20;0.20;;;;;;;10.40;60.78;99814.88;4998915;28;20038;-79
2022/04/06 02:20:07;;;;;;;0.20;0.20;;;;;;;10.66;60.92;99866.97;4998469;28;20061;-79
2022/04/06 02:22:33;;;;;;;0.20;0.20;;;;;;;10.19;60.78;99786.66;4978960;28;20059;-79
2022/04/06 02:24:59;;;;;;;0.20;0.20;;;;;;;10.47;60.57;99831.66;4978266;28;20060;-78
2022/04/06 02:27:30;;;;;;;0.20;0.20;;;;;;;10.68;61.49;99852.69;4977483;28;20043;-78
2022/04/06 02:29:58;;;;;;;0.20;0.20;;;;;;;10.54;61.27;99842.09;4977795;28;20083;-78
2022/04/06 02:32:24;;;;;;;0.20;0.20;;;;;;;10.22;61.35;99781.13;4977748;28;20055;-78
2022/04/06 02:34:50;;;;;;;0.20;0.20;;;;;;;10.52;61.37;99829.75;4977417;28;20046;-79
2022/04/06 02:37:21;;;;;;;0.20;0.20;;;;;;;10.52;61.62;99825.00;4978445;28;20031;-78
2022/04/06 02:39:50;;;;;;;0.20;0.20;;;;;;;10.55;61.66;99831.81;4978561;29;20035;-80
2022/04/06 02:42:15;;;;;;;0.20;0.20;;;;;;;10.55;61.51;99831.81;4978655;28;20050;-79
2022/04/06 02:44:43;;;;;;;0.20;0.20;;;;;;;10.65;61.75;99836.72;4978166;29;20015;-79
2022/04/06 02:47:12;;;;;;;0.20;0.20;;;;;;;10.49;62.42;99823.78;4978101;28;20078;-78
2022/04/06 02:49:37;;;;;;;0.20;0.20;;;;;;;10.35;62.18;99798.47;4977997;28;20051;-78
2022/04/06 02:52:07;;;;;;;0.30;0.30;;;;;;;10.29;61.98;99788.84;4993667;28;20028;-79
2022/04/06 02:54:33;;;;;;;0.30;0.30;;;;;;;10.41;62.28;99805.34;4978345;28;20042;-78
2022/04/06 02:56:58;;;;;;;0.20;0.20;;;;;;;10.70;62.16;99847.53;4978364;28;20035;-78
2022/04/06 02:59:24;;;;;;;0.20;0.20;;;;;;;10.55;62.01;99834.59;4982403;28;20063;-79
2022/04/06 03:01:50;;;;;;;0.20;0.20;;;;;;;10.52;60.82;99832.53;4981366;28;20027;-78
2022/04/06 03:04:15;;;;;;;0.20;0.20;;;;;;;10.12;61.92;99803.19;4982016;28;20065;-78
2022/04/06 03:06:41;;;;;;;0.20;0.20;;;;;;;10.04;62.63;99802.25;5135603;23;20037;-79
2022/04/06 03:09:07;;;;;;;0.20;0.20;;;;;;;9.94;63.56;99778.63;5020866;28;20049;-78
2022/04/06 03:11:34;;;;;;;0.20;0.20;;;;;;;10.53;63.76;99868.31;5020544;28;20038;-79
2022/04/06 03:14:02;;;;;;;0.20;0.20;;;;;;;10.12;64.22;99800.41;5020683;28;20065;-78
2022/04/06 03:16:28;;;;;;;0.20;0.20;;;;;;;10.15;63.69;99791.34;5019588;28;20046;-78
2022/04/06 03:18:57;;;;;;;0.20;0.20;;;;;;;10.01;63.54;99768.81;5020548;28;20029;-78
2022/04/06 03:21:23;;;;;;;0.20;0.20;;;;;;;9.79;62.74;99790.66;5020776;28;20018;-80
2022/04/06 03:23:49;;;;;;;0.20;0.20;;;;;;;9.78;63.63;99783.50;5021050;28;20022;-79
2022/04/06 03:26:15;;;;;;;0.20;0.20;;;;;;;9.91;62.93;99773.84;5019760;28;20022;-79
2022/04/06 03:28:41;;;;;;;0.20;0.20;;;;;;;9.85;62.82;99794.72;5020133;28;20048;-78
2022/04/06 03:31:07;;;;;;;0.20;0.20;;;;;;;9.77;63.00;99773.56;5020505;28;20070;-79
2022/04/06 03:33:36;;;;;;;0.20;0.20;;;;;;;9.66;63.42;99773.34;5019361;28;20021;-79
2022/04/06 03:36:03;;;;;;;0.20;0.20;;;;;;;9.83;63.55;99801.84;5019795;28;20026;-79
2022/04/06 03:38:29;;;;;;;0.20;0.20;;;;;;;9.77;64.49;99795.78;5019219;28;20022;-79
2022/04/06 03:40:55;;;;;;;0.25;0.25;;;;;;;9.77;64.69;99808.88;5019766;28;20062;-79
2022/04/06 03:43:21;;;;;;;0.20;0.20;;;;;;;9.69;65.07;99777.34;5020667;28;20030;-79
2022/04/06 03:45:50;;;;;;;0.20;0.20;;;;;;;9.70;65.25;99778.97;5019207;28;20030;-79
2022/04/06 03:48:22;;;;;;;0.20;0.20;;;;;;;9.71;65.34;99777.81;5018899;28;20031;-79
2022/04/06 03:50:49;;;;;;;0.20;0.20;;;;;;;9.92;64.34;99828.25;5019553;28;20077;-79
2022/04/06 03:53:18;;;;;;;0.20;0.20;;;;;;;9.90;64.47;99816.66;5019504;28;20022;-79
2022/04/06 03:55:44;;;;;;;0.20;0.20;;;;;;;10.04;63.77;99838.38;5019447;28;20101;-79
2022/04/06 03:58:10;;;;;;;0.20;0.20;;;;;;;9.54;64.26;99772.69;5019139;28;20022;-80
2022/04/06 04:00:35;;;;;;;0.20;0.20;;;;;;;9.81;64.57;99799.44;5018720;28;20028;-78
2022/04/06 04:03:01;;;;;;;0.20;0.20;;;;;;;9.57;64.24;99760.84;5018859;28;20038;-79
2022/04/06 04:05:27;;;;;;;0.20;0.20;;;;;;;9.63;61.59;99764.94;5018628;28;20042;-78
2022/04/06 04:07:52;;;;;;;0.20;0.20;;;;;;;9.82;62.28;99784.38;5017289;28;20118;-79
2022/04/06 04:10:19;;;;;;;0.20;0.20;;;;;;;9.87;62.66;99792.41;5017735;28;20101;-79
2022/04/06 04:12:45;;;;;;;0.25;0.25;;;;;;;9.54;62.72;99742.94;5018525;28;20078;-78
2022/04/06 04:15:13;;;;;;;0.20;0.20;;;;;;;9.49;63.27;99759.09;5018591;28;20025;-78
2022/04/06 04:17:39;;;;;;;0.20;0.20;;;;;;;9.75;63.26;99791.75;5018546;28;20062;-78
2022/04/06 04:20:06;;;;;;;0.20;0.20;;;;;;;10.05;63.80;99834.44;5017502;28;20026;-79
2022/04/06 04:22:32;;;;;;;0.20;0.20;;;;;;;9.49;62.73;99736.88;5018531;28;20041;-78
2022/04/06 04:25:00;;;;;;;0.20;0.20;;;;;;;9.54;62.03;99756.03;5018711;28;20014;-78
2022/04/06 04:27:29;;;;;;;0.20;0.20;;;;;;;9.55;62.65;99752.88;5018430;28;20022;-79
2022/04/06 04:29:56;;;;;;;0.25;0.25;;;;;;;9.74;62.92;99781.81;5019160;28;20028;-78
2022/04/06 04:32:22;;;;;;;0.20;0.20;;;;;;;9.47;62.31;99725.31;5019320;28;20053;-80
2022/04/06 04:34:48;;;;;;;0.20;0.20;;;;;;;9.74;62.06;99762.34;5018703;28;20019;-79
2022/04/06 04:37:14;;;;;;;0.20;0.20;;;;;;;9.41;61.64;99730.38;5017518;28;20040;-79
2022/04/06 04:39:40;;;;;;;0.20;0.20;;;;;;;9.46;61.24;99732.84;5017599;28;20033;-79
2022/04/06 04:42:06;;;;;;;0.20;0.20;;;;;;;9.51;60.58;99752.00;5017618;28;20018;-79
2022/04/06 04:44:32;;;;;;;0.20;0.20;;;;;;;9.87;59.52;99770.19;5018992;28;20046;-79
2022/04/06 04:46:58;;;;;;;0.20;0.20;;;;;;;9.88;58.88;99769.00;5018389;28;20091;-79
2022/04/06 04:49:24;;;;;;;0.20;0.20;;;;;;;9.88;59.27;99782.09;5017470;28;20018;-79
2022/04/06 04:51:50;;;;;;;0.20;0.20;;;;;;;9.89;59.57;99778.94;5017617;28;20113;-79
2022/04/06 04:54:17;;;;;;;0.20;0.20;;;;;;;10.08;57.44;99797.56;5018267;28;20038;-79
2022/04/06 04:56:43;;;;;;;0.20;0.20;;;;;;;10.02;58.40;99793.50;5018473;28;20074;-79
2022/04/06 04:59:09;;;;;;;0.20;0.20;;;;;;;9.67;59.22;99740.81;5017512;28;20085;-79
2022/04/06 05:01:35;;;;;;;0.20;0.20;;;;;;;9.82;58.47;99753.81;5017411;28;20062;-79
2022/04/06 05:04:00;;;;;;;0.20;0.20;;;;;;;9.79;58.71;99753.72;5017925;28;20077;-79
2022/04/06 05:06:29;;;;;;;0.30;0.30;;;;;;;9.71;58.44;99739.72;5017266;28;20062;-79
2022/04/06 05:08:55;;;;;;;0.30;0.30;;;;;;;10.35;59.29;99840.19;5017040;28;20019;-79
2022/04/06 05:11:20;;;;;;;0.20;0.20;;;;;;;9.97;59.57;99769.56;5016374;28;20018;-78
2022/04/06 05:13:46;;;;;;;0.20;0.20;;;;;;;10.19;58.89;99792.19;5016197;28;20038;-79
2022/04/06 05:16:12;;;;;;;0.20;0.20;;;;;;;10.11;59.68;99757.91;5016019;28;20034;-79
2022/04/06 05:18:37;;;;;;;0.20;0.20;;;;;;;10.57;58.85;99818.31;5015692;28;20057;-79
2022/04/06 05:21:03;;;;;;;0.20;0.20;;;;;;;10.26;57.14;99747.88;5016110;28;20086;-78
2022/04/06 05:23:31;;;;;;;0.20;0.20;;;;;;;10.84;57.21;99806.03;5017602;28;20032;-79
2022/04/06 05:25:57;;;;;;;0.20;0.20;;;;;;;10.69;56.25;99754.13;5017773;28;20081;-79
2022/04/06 05:28:28;;;;;;;0.20;0.20;;;;;;;11.30;55.32;99833.78;5015912;28;20019;-79
2022/04/06 05:30:53;;;;;;;0.20;0.20;;;;;;;11.32;54.85;99841.75;5016109;28;20045;-79
2022/04/06 05:33:19;;;;;;;0.20;0.20;;;;;;;11.18;54.00;99815.28;5016142;28;20057;-79
2022/04/06 05:35:45;;;;;;;0.20;0.20;;;;;;;11.21;54.50;99819.31;5016550;28;20014;-79
2022/04/06 05:38:14;;;;;;;0.20;0.20;;;;;;;11.21;53.84;99819.31;5015874;28;20037;-78
2022/04/06 05:40:39;;;;;;;0.20;0.20;;;;;;;11.28;51.58;99800.72;5016643;28;20036;-79
2022/04/06 05:43:08;;;;;;;0.20;0.20;;;;;;;11.46;50.93;99820.47;5018083;28;20022;-80
2022/04/06 05:45:36;;;;;;;0.22;0.22;;;;;;;11.64;51.25;99826.28;5017807;28;20042;-79
2022/04/06 05:48:06;;;;;;;0.20;0.20;;;;;;;11.77;50.93;99837.97;5015536;28;20038;-78
2022/04/06 05:50:32;;;;;;;0.20;0.20;;;;;;;11.70;49.94;99835.09;5015376;28;20034;-79
2022/04/06 05:53:00;;;;;;;0.20;0.20;;;;;;;11.57;52.99;99842.91;5016159;28;20022;-80
2022/04/06 05:55:28;;;;;;;0.20;0.20;;;;;;;11.14;55.58;99838.72;5016146;28;20034;-79
2022/04/06 05:57:54;;;;;;;0.20;0.20;;;;;;;10.92;55.78;99843.97;5014889;28;20021;-80
2022/04/06 06:00:22;;;;;;;0.20;0.20;;;;;;;10.79;56.32;99842.53;5014724;28;20106;-79
2022/04/06 06:02:51;;;;;;;0.20;0.20;;;;;;;10.88;56.33;99842.28;5014023;28;20030;-78
2022/04/06 06:05:16;;;;;;;0.20;0.20;;;;;;;10.89;56.52;99841.91;5014561;28;20044;-79
2022/04/06 06:07:45;;;;;;;0.20;0.20;;;;;;;11.01;57.04;99854.81;5015035;28;20097;-79
2022/04/06 06:10:16;;;;;;;0.20;0.20;;;;;;;11.08;56.95;99854.13;5012590;28;20026;-79
2022/04/06 06:12:45;;;;;;;0.20;0.20;;;;;;;11.11;56.63;99853.38;5012302;28;20022;-80
2022/04/06 06:15:13;;;;;;;0.20;0.20;;;;;;;11.22;56.20;99851.56;5018983;28;20130;-82
2022/04/06 06:17:40;;;;;;;0.20;0.20;;;;;;;11.34;56.50;99859.69;5018758;28;20089;-82
2022/04/06 06:38:12;;;;;;;0.20;0.20;;;;;;;12.13;56.66;99849.59;5137659;23;20042;-81
2022/04/06 06:40:37;;;;;;;0.20;0.20;;;;;;;12.30;56.75;99860.13;5000659;28;20038;-81
2022/04/06 06:43:17;;;;;;;0.20;0.20;;;;;;;12.47;57.25;99862.31;4998424;28;20033;-81
2022/04/06 06:45:43;;;;;;;0.20;0.20;;;;;;;12.77;56.79;99853.81;4994562;28;20023;-80
2022/04/06 06:48:09;;;;;;;0.20;0.20;;;;;;;13.48;54.21;99859.16;4994678;28;20050;-81
2022/04/06 06:50:34;;;;;;;0.20;0.20;;;;;;;14.24;52.31;99860.28;4987650;28;20034;-82
2022/04/06 06:53:02;;;;;;;0.20;0.20;;;;;;;14.53;50.99;99861.97;4980738;28;20034;-82
2022/04/06 06:55:28;;;;;;;0.20;0.20;;;;;;;15.07;48.06;99856.38;4977578;28;20140;-85
2022/04/06 06:57:54;;;;;;;0.20;0.20;;;;;;;15.78;45.23;99867.50;4977072;28;20121;-85
2022/04/06 07:00:19;;;;;;;0.20;0.20;;;;;;;15.95;43.99;99871.44;4979360;28;20393;-79
2022/04/06 07:02:45;;;;;;;0.20;0.20;;;;;;;15.92;43.99;99877.88;4981299;28;20109;-81
2022/04/06 07:05:14;;;;;;;0.20;0.20;;;;;;;15.56;44.61;99863.94;4977064;28;20485;-85
2022/04/06 07:07:53;;;;;;;0.20;0.20;;;;;;;15.58;44.63;99858.72;4977851;28;20053;-85
2022/04/06 07:10:21;;;;;;;0.20;0.20;;;;;;;15.30;46.61;99870.00;4976588;28;20397;-86
2022/04/06 07:12:46;;;;;;;0.20;0.20;;;;;;;14.94;48.73;99858.81;4976409;28;20022;-83
2022/04/06 07:15:12;;;;;;;0.20;0.20;;;;;;;14.96;48.85;99852.78;4994908;28;20041;-81
2022/04/06 07:17:38;;;;;;;0.20;0.20;;;;;;;14.91;48.75;99842.78;4993932;28;20030;-80
2022/04/06 07:20:06;;;;;;;0.20;0.20;;;;;;;14.93;48.01;99852.41;4999424;28;20058;-80
2022/04/06 07:22:32;;;;;;;0.20;0.20;;;;;;;14.96;47.65;99842.38;4998462;28;20050;-79
2022/04/06 07:25:01;;;;;;;0.20;0.20;;;;;;;14.96;48.23;99839.59;4998661;28;20038;-80
2022/04/06 07:27:32;;;;;;;0.20;0.20;;;;;;;15.34;46.32;99837.13;4993913;28;20033;-80
2022/04/06 07:29:58;;;;;;;0.20;0.20;;;;;;;15.29;46.23;99834.78;4978358;28;20069;-87
2022/04/06 07:32:23;;;;;;;0.20;0.20;;;;;;;15.62;45.49;99836.28;4976644;28;20065;-85
2022/04/06 07:34:56;;;;;;;0.20;0.20;;;;;;;16.13;44.94;99843.28;4976380;28;20080;-83
2022/04/06 07:37:24;;;;;;;0.20;0.20;;;;;;;16.06;45.20;99837.72;4977753;28;20046;-83
2022/04/06 07:39:50;;;;;;;0.20;0.20;;;;;;;16.81;43.12;99838.06;4976885;28;20023;-85
2022/04/06 07:42:16;;;;;;;0.22;0.22;;;;;;;17.90;41.03;99836.63;4976460;28;20069;-88
2022/04/06 07:44:41;;;;;;;0.20;0.20;;;;;;;18.33;39.43;99839.66;4978413;28;20062;-85
2022/04/06 07:47:10;;;;;;;0.20;0.20;;;;;;;16.95;41.16;99835.16;4980112;28;20026;-84
2022/04/06 07:49:38;;;;;;;0.20;0.20;;;;;;;17.21;40.65;99830.09;4979545;28;20081;-85
2022/04/06 07:52:07;;;;;;;0.20;0.20;;;;;;;16.97;40.41;99829.91;4997432;28;20042;-87
2022/04/06 07:54:32;;;;;;;0.20;0.20;;;;;;;17.87;38.54;99817.75;4979821;28;20113;-87
2022/04/06 07:56:58;;;;;;;0.20;0.20;;;;;;;18.44;34.19;99814.16;4979533;28;20121;-88
2022/04/06 07:59:26;;;;;;;0.20;0.20;;;;;;;19.27;33.83;99812.34;4979581;28;20121;-86
2022/04/06 08:01:52;;;;;;;0.20;0.20;;;;;;;19.85;31.88;99812.88;4997343;28;20385;-85
2022/04/06 08:04:17;;;;;;;0.20;0.20;;;;;;;20.47;30.38;99806.72;4997443;28;20027;-85
2022/04/06 08:06:43;;;;;;;0.20;0.20;;;;;;;21.17;30.55;99820.31;4980326;28;20068;-87
2022/04/06 08:09:12;;;;;;;0.20;0.20;;;;;;;21.10;30.47;99821.31;4979591;28;20042;-87
2022/04/06 08:11:40;;;;;;;0.20;0.20;;;;;;;21.73;30.11;99822.03;4979660;28;20034;-83
2022/04/06 08:14:06;;;;;;;0.20;0.20;;;;;;;21.69;29.46;99817.31;4979009;28;20485;-86
2022/04/06 08:16:34;;;;;;;0.20;0.20;;;;;;;21.18;29.62;99816.25;4979089;28;20039;-83
2022/04/06 08:19:00;;;;;;;0.20;0.20;;;;;;;21.23;30.08;99824.19;4979501;28;20030;-84
2022/04/06 08:21:25;;;;;;;0.20;0.20;;;;;;;20.91;31.24;99825.00;4980272;28;20522;-85
2022/04/06 08:23:53;;;;;;;0.10;0.10;;;;;;;20.82;30.99;99836.13;4996260;28;20377;-86
2022/04/06 08:26:21;;;;;;;0.20;0.20;;;;;;;21.01;32.08;99823.94;4979637;28;20049;-84
2022/04/06 08:28:47;;;;;;;0.20;0.20;;;;;;;20.83;32.50;99830.06;4979293;28;20049;-85
2022/04/06 08:31:13;;;;;;;0.20;0.20;;;;;;;20.23;33.62;99832.22;4979120;28;20100;-85
2022/04/06 08:33:42;;;;;;;0.20;0.20;;;;;;;19.19;35.23;99827.84;4978959;28;20034;-88
2022/04/06 08:36:12;;;;;;;0.20;0.20;;;;;;;18.93;36.67;99837.94;4979139;28;20049;-83
2022/04/06 08:38:38;;;;;;;0.20;0.20;;;;;;;19.77;35.11;99839.66;4997632;28;20050;-88
2022/04/06 08:41:06;;;;;;;0.20;0.20;;;;;;;20.18;34.58;99841.22;4979327;28;20044;-87
2022/04/06 08:43:32;;;;;;;0.20;0.20;;;;;;;20.68;32.86;99834.47;4978579;28;20125;-85
2022/04/06 08:46:03;;;;;;;0.20;0.20;;;;;;;21.53;31.60;99825.06;4978599;28;20133;-84
2022/04/06 08:48:33;;;;;;;0.20;0.20;;;;;;;20.49;32.59;99827.63;4978892;28;20117;-84
2022/04/06 08:51:06;;;;;;;0.20;0.20;;;;;;;21.29;31.19;99819.56;4978465;28;20092;-85
2022/04/06 08:53:41;;;;;;;0.20;0.20;;;;;;;20.47;31.59;99786.94;4979032;28;20034;-84
2022/04/06 08:56:07;;;;;;;0.20;0.20;;;;;;;20.74;31.78;99815.75;4995794;28;20101;-87
2022/04/06 08:58:33;;;;;;;0.10;0.10;;;;;;;20.17;33.21;99828.31;4978284;28;20049;-86
2022/04/06 09:00:59;;;;;;;0.20;0.20;;;;;;;20.70;31.30;99820.69;4978836;28;20073;-83
2022/04/06 09:03:25;;;;;;;0.20;0.20;;;;;;;20.47;31.09;99823.66;4978450;28;20441;-87
2022/04/06 09:06:08;;;;;;;0.20;0.20;;;;;;;20.59;31.93;99835.06;4978964;28;20030;-86
2022/04/06 09:08:46;;;;;;;0.20;0.20;;;;;;;20.22;32.25;99829.84;4978738;28;20122;-86
2022/04/06 09:11:14;;;;;;;0.20;0.20;;;;;;;20.95;32.00;99822.09;4978940;28;20038;-84
2022/04/06 09:13:42;;;;;;;0.20;0.20;;;;;;;21.93;29.89;99817.00;4978084;28;20040;-86
2022/04/06 09:16:17;;;;;;;0.20;0.20;;;;;;;21.09;30.72;99825.38;4979079;28;20034;-87
2022/04/06 09:18:48;;;;;;;0.15;0.15;;;;;;;21.96;29.22;99824.63;4977947;28;20033;-84
2022/04/06 09:21:18;;;;;;;0.20;0.20;;;;;;;22.41;28.48;99815.97;4978577;28;20038;-87
2022/04/06 09:23:51;;;;;;;0.20;0.20;;;;;;;22.81;27.34;99826.88;4995685;28;20054;-85
2022/04/06 09:26:21;;;;;;;0.20;0.20;;;;;;;21.63;29.29;99829.63;4979001;28;20037;-84
2022/04/06 09:28:49;;;;;;;0.20;0.20;;;;;;;22.30;28.22;99818.34;4977678;28;20022;-75
2022/04/06 09:31:18;;;;;;;0.10;0.10;;;;;;;21.85;27.84;99824.94;4977688;28;20473;-80
2022/04/06 09:33:59;;;;;;;0.20;0.20;;;;;;;21.84;28.34;99811.22;4977825;28;20101;-76
2022/04/06 09:36:27;;;;;;;0.13;0.13;;;;;;;21.75;27.34;99825.25;4977236;28;20030;-76
2022/04/06 09:38:55;;;;;;;0.20;0.20;;;;;;;21.56;26.76;99824.16;4977441;28;20531;-76
2022/04/06 09:41:25;;;;;;;0.20;0.20;;;;;;;21.74;26.59;99818.78;4977380;28;20462;-77
2022/04/06 09:43:52;;;;;;;0.20;0.20;;;;;;;21.96;26.34;99814.09;4977380;28;20023;-74
2022/04/06 09:49:14;;;;;;;0.20;0.20;;;;;;;21.67;26.18;99802.78;4995025;28;20040;-77
2022/04/06 09:51:44;;;;;;;0.20;0.20;;;;;;;22.08;26.00;99808.91;4977116;28;20042;-85
2022/04/06 09:54:13;;;;;;;0.20;0.20;;;;;;;22.67;25.30;99794.09;4977271;28;20543;-81
2022/04/06 09:56:39;;;;;;;0.20;0.20;;;;;;;22.81;26.30;99798.50;4977990;28;20358;-78
2022/04/06 09:59:07;;;;;;;0.10;0.10;;;;;;;22.46;26.05;99795.56;4994646;28;20472;-77
2022/04/06 10:01:38;;;;;;;0.10;0.10;;;;;;;21.94;27.14;99788.25;4977135;28;20046;-75
2022/04/06 10:04:10;;;;;;;0.10;0.10;;;;;;;21.78;27.25;99791.16;4977154;28;20030;-77
2022/04/06 10:06:38;;;;;;;0.10;0.10;;;;;;;22.41;27.43;99787.63;4993870;28;20058;-80
2022/04/06 10:09:09;;;;;;;0.20;0.20;;;;;;;22.94;28.24;99787.94;4977647;28;20028;-82
2022/04/06 10:11:36;;;;;;;0.20;0.20;;;;;;;22.86;27.95;99797.94;4977493;28;20031;-78
2022/04/06 10:14:04;;;;;;;0.20;0.20;;;;;;;22.70;27.68;99798.84;4977415;28;20022;-82
2022/04/06 10:16:31;;;;;;;0.10;0.10;;;;;;;22.87;27.58;99799.50;4977584;28;20027;-79
2022/04/06 10:18:58;;;;;;;0.20;0.20;;;;;;;22.88;27.82;99789.78;4977331;28;20045;-81
2022/04/06 10:22:13;;;;;;;0.10;0.10;;;;;;;22.58;27.07;99791.13;4960874;28;20097;-84
2022/04/06 10:25:08;;;;;;;0.10;0.10;;;;;;;23.30;26.42;99777.41;4973313;28;20093;-79
2022/04/06 10:27:42;;;;;;;0.20;0.20;;;;;;;23.03;25.34;99784.41;4977305;28;20034;-84
2022/04/06 10:30:15;;;;;;;0.20;0.20;;;;;;;22.45;25.51;99776.19;4994226;28;20041;-79
2022/04/06 10:32:43;;;;;;;0.13;0.13;;;;;;;22.53;26.01;99785.25;4977116;28;20462;-82
2022/04/06 10:35:31;;;;;;;0.10;0.10;;;;;;;22.83;26.11;99781.03;4976511;28;20034;-76
2022/04/06 10:37:56;;;;;;;0.20;0.20;;;;;;;23.06;25.58;99774.97;4972879;28;20050;-77
2022/04/06 10:40:30;;;;;;;0.10;0.10;;;;;;;23.53;24.68;99745.72;4973339;28;20058;-83
2022/04/06 10:42:58;;;;;;;0.10;0.10;;;;;;;22.17;25.82;99761.69;4973550;28;20107;-82
2022/04/06 10:45:30;;;;;;;0.20;0.20;;;;;;;22.91;24.65;99762.56;4973429;28;20033;-81
2022/04/06 10:48:09;;;;;;;0.20;0.20;;;;;;;22.42;24.55;99726.84;4972948;28;20062;-82
2022/04/06 10:50:35;;;;;;;0.17;0.17;;;;;;;22.79;24.79;99760.50;4975145;28;20039;-82
2022/04/06 10:53:21;;;;;;;0.13;0.13;;;;;;;23.37;24.19;99743.88;4973493;28;20031;-78
2022/04/06 10:56:18;;;;;;;0.10;0.10;;;;;;;22.21;24.93;99745.38;4972592;28;20034;-82
2022/04/06 10:58:56;;;;;;;0.20;0.20;;;;;;;21.76;24.92;99748.34;4972491;28;20045;-77
2022/04/06 11:01:26;;;;;;;0.20;0.20;;;;;;;21.84;25.34;99748.91;4973696;28;20027;-77
2022/04/06 11:04:00;;;;;;;0.20;0.20;;;;;;;22.27;24.96;99742.75;4975064;28;20049;-79
2022/04/06 11:06:44;;;;;;;0.15;0.15;;;;;;;22.43;24.87;99734.13;4973057;28;20466;-83
2022/04/06 11:12:29;;;;;;;0.20;0.20;;;;;;;22.71;24.25;99721.03;4974855;28;20097;-81
2022/04/06 11:14:57;;;;;;;0.20;0.20;;;;;;;22.58;24.09;99717.44;4972935;28;20062;-78
2022/04/06 11:17:34;;;;;;;0.10;0.10;;;;;;;23.39;23.61;99724.34;4973838;28;20488;-77
2022/04/06 11:20:07;;;;;;;0.10;0.10;;;;;;;22.96;24.27;99711.72;4976887;28;20031;-80
2022/04/06 11:22:34;;;;;;;0.10;0.10;;;;;;;22.27;24.40;99713.63;4977485;28;20034;-83
2022/04/06 11:25:06;;;;;;;0.10;0.10;;;;;;;22.27;25.34;99705.94;4976550;28;20085;-80
2022/04/06 11:27:37;;;;;;;0.10;0.10;;;;;;;21.60;26.54;99692.59;4976796;28;20088;-83
2022/04/06 11:30:09;;;;;;;0.10;0.10;;;;;;;21.63;26.09;99699.41;4978325;28;20069;-79
2022/04/06 11:32:36;;;;;;;0.13;0.13;;;;;;;20.66;27.24;99695.59;4976670;28;20035;-83
2022/04/06 11:35:09;;;;;;;0.17;0.17;;;;;;;21.50;26.85;99695.75;4976653;28;20027;-83
2022/04/06 11:37:49;;;;;;;0.20;0.20;;;;;;;21.42;26.69;99690.31;4976404;28;20055;-83
2022/04/06 11:40:22;;;;;;;0.10;0.10;;;;;;;21.34;27.09;99683.25;4976606;28;20077;-80
2022/04/06 11:42:51;;;;;;;0.10;0.10;;;;;;;21.29;27.04;99680.94;4976739;28;20031;-79
2022/04/06 11:45:36;;;;;;;0.20;0.20;;;;;;;21.31;27.24;99684.16;4976541;28;20034;-77
2022/04/06 11:48:06;;;;;;;0.20;0.20;;;;;;;21.19;27.84;99677.16;4977850;28;20062;-82
2022/04/06 11:50:34;;;;;;;0.10;0.10;;;;;;;21.47;26.97;99679.69;4976483;28;20030;-84
2022/04/06 11:53:15;;;;;;;0.20;0.20;;;;;;;22.08;26.26;99675.75;4976319;28;20043;-84
2022/04/06 11:55:54;;;;;;;0.20;0.20;;;;;;;22.56;25.20;99660.41;4976331;28;20102;-84
2022/04/06 11:58:38;;;;;;;0.20;0.20;;;;;;;23.03;25.45;99655.97;4977207;28;20034;-78
2022/04/06 12:01:14;;;;;;;0.20;0.20;;;;;;;23.18;24.91;99657.03;4976050;28;20027;-84
2022/04/06 12:03:46;;;;;;;0.20;0.20;;;;;;;23.29;23.55;99656.63;4977103;28;20039;-84
2022/04/06 12:06:16;;;;;;;0.20;0.20;;;;;;;23.25;24.17;99645.41;4976248;28;20118;-79
2022/04/06 12:08:46;;;;;;;0.20;0.20;;;;;;;23.04;24.07;99652.66;4976283;28;20074;-79
2022/04/06 12:11:12;;;;;;;0.20;0.20;;;;;;;23.62;23.90;99640.72;4976136;28;20201;-78
2022/04/06 12:13:44;;;;;;;0.10;0.10;;;;;;;23.17;24.09;99615.69;4976412;28;20035;-78
2022/04/06 12:16:10;;;;;;;0.10;0.10;;;;;;;22.65;24.21;99631.34;4976237;28;20477;-82